CheckWX is a tool to help pilots better visualize weather data.  It is not intended as a substitute for an official pre-flight weather briefing.

12:23:08 UTC

KHWV METAR
Brookhaven Airport
Shirley, New York, USA
Current

20 mins ago

KHWV 181203Z AUTO VRB03KT 5SM UP BR OVC005 01/00 A2980 RMK AO2 P0000 T00060000
Observed
Feb-18 @ 12:03 UTC
Wind
  • Variable at 3 KTS
Visibility
5 SM
Flight Rules
IFR
Conditions
Mist, Unknown precipitation
Cloud Levels
  • Overcast at 500' AGL
Temperature
C / 34°F
Dewpoint
C / 32°F
Humidity
93%
Altimeter
29.8" Hg
Pressure
1009.12 hPa
Current Rain
0.01"
Previous

27 mins ago

KHWV 181156Z AUTO VRB03KT 4SM UP BR OVC004 01/00 A2981 RMK AO2 RAE08B30E51UPB31E34B51 SLP095 P0000 60004 70011 I6002 T00060000 10006 21006 55019
Observed
Feb-18 @ 11:56 UTC
Wind
  • Variable at 3 KTS
Visibility
4 SM
Flight Rules
LIFR
Conditions
Mist, Unknown precipitation
Cloud Levels
  • Overcast at 400' AGL
Temperature
C / 34°F
Dewpoint
C / 32°F
Humidity
93%
Altimeter
29.81" Hg
Pressure
1009.5 hPa
Current Rain
0.01"
Previous

1 hour ago

KHWV 181056Z AUTO 10004KT 10SM -RA OVC004 01/M01 A2980 RMK AO2 RAE02B42UPB02E36 SLP092 P0001 T00061006
Observed
Feb-18 @ 10:56 UTC
Wind
  • 100° at 4 KTS
Visibility
10 SM
Flight Rules
LIFR
Conditions
Light Rain
Cloud Levels
  • Overcast at 400' AGL
Temperature
C / 34°F
Dewpoint
-1°C / 30°F
Humidity
87%
Altimeter
29.8" Hg
Pressure
1009.2 hPa
Current Rain
0.01"